Time;durP1;ratioP1;P1;durP2;ratioP2;P2;SDS_P1;SDS_P2;PMS_P1;PMS_P2;Temp;Humidity;BMP_temperature;BMP_pressure;BME280_temperature;BME280_humidity;BME280_pressure;Samples;Min_cycle;Max_cycle;Signal;HPM_P1;HPM_P2
2023/03/10 00:00:04;;;;;;;12.87;11.57;;;;;;;;;;4991994;28;20221;-86
2023/03/10 00:02:33;;;;;;;13.80;12.40;;;;;;;;;;5000548;28;20232;-87
2023/03/10 00:04:58;;;;;;;13.33;11.93;;;;;;;;;;4988874;28;20224;-89
2023/03/10 00:07:24;;;;;;;13.27;11.97;;;;;;;;;;4981418;28;20229;-86
2023/03/10 00:09:54;;;;;;;13.30;11.80;;;;;;;;;;4979188;28;20224;-87
2023/03/10 00:12:21;;;;;;;13.13;11.83;;;;;;;;;;4960768;28;20225;-87
2023/03/10 00:14:47;;;;;;;12.63;11.43;;;;;;;;;;4983783;28;20227;-87
2023/03/10 00:17:13;;;;;;;11.67;10.57;;;;;;;;;;5001262;28;20244;-86
2023/03/10 00:19:39;;;;;;;14.73;11.67;;;;;;;;;;4991060;28;20223;-87
2023/03/10 00:22:07;;;;;;;11.83;10.53;;;;;;;;;;4995368;28;20319;-86
2023/03/10 00:24:32;;;;;;;11.93;10.73;;;;;;;;;;4965421;28;20240;-86
2023/03/10 00:26:58;;;;;;;11.97;10.87;;;;;;;;;;4978291;28;20243;-86
2023/03/10 00:29:26;;;;;;;11.10;10.03;;;;;;;;;;5000850;28;20216;-86
2023/03/10 00:31:52;;;;;;;10.80;9.77;;;;;;;;;;4990925;28;20217;-86
2023/03/10 00:34:18;;;;;;;10.60;9.60;;;;;;;;;;4974846;28;20296;-85
2023/03/10 00:36:43;;;;;;;11.37;10.27;;;;;;;;;;4980853;28;20234;-85
2023/03/10 00:39:12;;;;;;;12.00;10.70;;;;;;;;;;4968416;28;20216;-87
2023/03/10 00:41:42;;;;;;;11.27;10.07;;;;;;;;;;4993008;28;20221;-85
2023/03/10 00:44:10;;;;;;;11.70;10.57;;;;;;;;;;4993158;28;20220;-85
2023/03/10 00:46:39;;;;;;;10.43;9.53;;;;;;;;;;4995542;28;20251;-84
2023/03/10 00:49:09;;;;;;;10.87;9.87;;;;;;;;;;4993995;28;20232;-84
2023/03/10 00:51:34;;;;;;;10.57;9.57;;;;;;;;;;4993700;28;20297;-85
2023/03/10 00:54:02;;;;;;;9.97;9.07;;;;;;;;;;4994675;28;20236;-86
2023/03/10 00:56:28;;;;;;;10.53;9.53;;;;;;;;;;4989587;28;21168;-86
2023/03/10 00:58:55;;;;;;;11.03;10.03;;;;;;;;;;4986071;28;20224;-85
2023/03/10 01:01:28;;;;;;;12.03;10.73;;;;;;;;;;4988301;28;20220;-86
2023/03/10 01:03:55;;;;;;;10.67;9.70;;;;;;;;;;4983783;28;20220;-86
2023/03/10 01:06:25;;;;;;;10.97;9.93;;;;;;;;;;4971658;28;20243;-87
2023/03/10 01:08:55;;;;;;;12.50;10.00;;;;;;;;;;4973184;28;20229;-85
2023/03/10 01:11:25;;;;;;;10.80;9.70;;;;;;;;;;4992044;28;20231;-86
2023/03/10 01:13:51;;;;;;;11.80;10.60;;;;;;;;;;5001574;28;20309;-84
2023/03/10 01:16:19;;;;;;;10.20;9.30;;;;;;;;;;5004436;28;20232;-83
2023/03/10 01:18:45;;;;;;;11.23;10.13;;;;;;;;;;4976052;28;20227;-82
2023/03/10 01:21:17;;;;;;;9.13;8.23;;;;;;;;;;4985823;28;20240;-82
2023/03/10 01:23:45;;;;;;;8.67;7.87;;;;;;;;;;5004853;28;20301;-82
2023/03/10 01:26:10;;;;;;;9.13;8.23;;;;;;;;;;4984806;28;20213;-81
2023/03/10 01:28:36;;;;;;;9.57;8.67;;;;;;;;;;4973077;28;20701;-81
2023/03/10 01:31:06;;;;;;;8.80;8.00;;;;;;;;;;4967649;28;20212;-81
2023/03/10 01:33:34;;;;;;;8.97;8.17;;;;;;;;;;4992239;28;20591;-81
2023/03/10 01:36:09;;;;;;;8.20;7.47;;;;;;;;;;4973372;28;20562;-81
2023/03/10 01:38:36;;;;;;;7.93;7.23;;;;;;;;;;4998367;28;20216;-81
2023/03/10 01:41:01;;;;;;;8.07;7.37;;;;;;;;;;4988974;28;20292;-82
2023/03/10 01:43:28;;;;;;;8.70;7.90;;;;;;;;;;4986666;28;20303;-81
2023/03/10 01:45:53;;;;;;;7.13;6.53;;;;;;;;;;4999385;28;20235;-81
2023/03/10 01:48:21;;;;;;;7.47;6.77;;;;;;;;;;5008040;28;20271;-81
2023/03/10 01:50:51;;;;;;;7.03;6.43;;;;;;;;;;5004120;28;20746;-81
2023/03/10 01:53:19;;;;;;;7.40;6.73;;;;;;;;;;4975333;28;20235;-82
2023/03/10 01:55:51;;;;;;;6.90;6.30;;;;;;;;;;5004405;28;20211;-83
2023/03/10 01:58:17;;;;;;;6.83;6.23;;;;;;;;;;4972167;28;20225;-82
2023/03/10 02:00:48;;;;;;;6.40;5.90;;;;;;;;;;4998545;28;20228;-83
2023/03/10 02:03:20;;;;;;;6.70;6.10;;;;;;;;;;4981088;28;20220;-83
2023/03/10 02:06:03;;;;;;;5.97;5.47;;;;;;;;;;4991452;28;20235;-84
2023/03/10 02:08:31;;;;;;;5.83;5.33;;;;;;;;;;4992235;28;20221;-82
2023/03/10 02:10:57;;;;;;;6.03;5.43;;;;;;;;;;4990724;28;20205;-83
2023/03/10 02:13:25;;;;;;;5.63;5.23;;;;;;;;;;4988787;28;20634;-85
2023/03/10 02:15:50;;;;;;;5.63;5.13;;;;;;;;;;5003627;28;20220;-82
2023/03/10 02:18:18;;;;;;;5.97;5.47;;;;;;;;;;5004909;28;20219;-83
2023/03/10 02:21:23;;;;;;;6.03;5.50;;;;;;;;;;4987553;28;20220;-81
2023/03/10 02:24:03;;;;;;;6.10;5.60;;;;;;;;;;5016020;28;20707;-80
2023/03/10 02:26:52;;;;;;;5.40;4.90;;;;;;;;;;4993163;28;20239;-81
2023/03/10 02:29:53;;;;;;;4.97;4.57;;;;;;;;;;4991430;28;20216;-83
2023/03/10 02:32:21;;;;;;;4.93;4.53;;;;;;;;;;4980339;28;20222;-84
2023/03/10 02:34:46;;;;;;;4.87;4.47;;;;;;;;;;4979593;28;20228;-82
2023/03/10 02:37:38;;;;;;;4.90;4.50;;;;;;;;;;4972479;28;20589;-83
2023/03/10 02:40:42;;;;;;;4.80;4.40;;;;;;;;;;4993302;28;20605;-82
2023/03/10 02:43:14;;;;;;;5.33;4.83;;;;;;;;;;4921987;29;20226;-83
2023/03/10 02:45:44;;;;;;;5.10;4.70;;;;;;;;;;4973538;28;20285;-83
2023/03/10 02:48:20;;;;;;;4.80;4.40;;;;;;;;;;5013531;28;20220;-84
2023/03/10 02:50:46;;;;;;;5.07;3.33;;;;;;;;;;4987832;28;20231;-82
2023/03/10 02:53:19;;;;;;;4.97;4.57;;;;;;;;;;4971321;28;20229;-83
2023/03/10 02:55:54;;;;;;;4.47;4.07;;;;;;;;;;4999016;28;20232;-82
2023/03/10 02:58:24;;;;;;;4.60;4.20;;;;;;;;;;4983432;28;20208;-82
2023/03/10 03:00:50;;;;;;;4.53;4.13;;;;;;;;;;4996370;28;20243;-83
2023/03/10 03:03:20;;;;;;;4.23;3.83;;;;;;;;;;4984885;28;20220;-83
2023/03/10 03:05:46;;;;;;;4.43;4.03;;;;;;;;;;4994286;28;20252;-83
2023/03/10 03:08:12;;;;;;;4.70;4.30;;;;;;;;;;4987037;28;20588;-82
2023/03/10 03:10:40;;;;;;;4.20;3.83;;;;;;;;;;4995593;28;20296;-80
2023/03/10 03:13:07;;;;;;;4.53;4.20;;;;;;;;;;4994453;28;20201;-82
2023/03/10 03:15:35;;;;;;;4.17;3.77;;;;;;;;;;5014909;28;20235;-83
2023/03/10 03:18:06;;;;;;;4.10;3.70;;;;;;;;;;4967864;28;20266;-83
2023/03/10 03:20:35;;;;;;;4.07;3.77;;;;;;;;;;4990376;28;20220;-83
2023/03/10 03:23:00;;;;;;;4.30;3.90;;;;;;;;;;4988194;28;20232;-83
2023/03/10 03:25:27;;;;;;;3.80;3.50;;;;;;;;;;4989624;28;20272;-81
2023/03/10 03:27:52;;;;;;;3.73;3.43;;;;;;;;;;4986659;28;20721;-82
2023/03/10 03:30:22;;;;;;;3.43;3.23;;;;;;;;;;5010449;28;20221;-83
2023/03/10 03:32:51;;;;;;;3.70;3.40;;;;;;;;;;4970214;28;20212;-82
2023/03/10 03:35:26;;;;;;;3.70;3.40;;;;;;;;;;4982571;28;20232;-82
2023/03/10 03:37:52;;;;;;;3.27;2.97;;;;;;;;;;4964768;28;20569;-83
2023/03/10 03:40:22;;;;;;;3.00;2.80;;;;;;;;;;4968458;28;20219;-84
2023/03/10 03:42:51;;;;;;;3.43;3.13;;;;;;;;;;4983602;28;20208;-83
2023/03/10 03:45:23;;;;;;;3.30;3.00;;;;;;;;;;4982820;28;20219;-84
2023/03/10 03:47:51;;;;;;;2.80;2.60;;;;;;;;;;4982966;28;20474;-84
2023/03/10 03:50:17;;;;;;;2.70;2.50;;;;;;;;;;4981288;28;20216;-86
2023/03/10 03:52:43;;;;;;;3.30;3.00;;;;;;;;;;4985179;28;20597;-83
2023/03/10 03:55:10;;;;;;;3.37;3.07;;;;;;;;;;4982811;28;20212;-85
2023/03/10 03:57:37;;;;;;;2.70;2.50;;;;;;;;;;4982620;28;20270;-87
2023/03/10 04:00:07;;;;;;;2.87;2.67;;;;;;;;;;4989358;28;20235;-85
2023/03/10 04:02:38;;;;;;;2.87;2.67;;;;;;;;;;4982356;28;20216;-85
2023/03/10 04:05:12;;;;;;;2.57;2.37;;;;;;;;;;4983297;28;20247;-86
2023/03/10 04:07:39;;;;;;;2.97;2.00;;;;;;;;;;4982129;28;20215;-87
2023/03/10 04:10:12;;;;;;;2.47;2.27;;;;;;;;;;4992733;28;20212;-84
2023/03/10 04:12:37;;;;;;;3.60;2.20;;;;;;;;;;4986806;28;20291;-85
2023/03/10 04:15:03;;;;;;;2.77;2.40;;;;;;;;;;5001766;28;20313;-86
2023/03/10 04:17:29;;;;;;;2.47;2.23;;;;;;;;;;4967996;28;20484;-88
2023/03/10 04:19:55;;;;;;;2.00;1.90;;;;;;;;;;4966484;28;21116;-86
2023/03/10 04:22:20;;;;;;;1.93;1.83;;;;;;;;;;4983195;28;20299;-85
2023/03/10 04:24:47;;;;;;;3.13;2.40;;;;;;;;;;4966759;28;20220;-86
2023/03/10 04:27:13;;;;;;;2.43;2.23;;;;;;;;;;4990773;28;20220;-87
2023/03/10 04:29:39;;;;;;;2.20;2.10;;;;;;;;;;4983404;28;20216;-85
2023/03/10 04:32:08;;;;;;;2.53;2.17;;;;;;;;;;4998616;28;20236;-86
2023/03/10 04:34:38;;;;;;;2.27;2.07;;;;;;;;;;4982511;28;20262;-85
2023/03/10 04:37:03;;;;;;;2.10;1.90;;;;;;;;;;4964958;28;20252;-85
2023/03/10 04:39:32;;;;;;;2.40;2.20;;;;;;;;;;4998729;28;20563;-86
2023/03/10 04:41:58;;;;;;;2.10;2.00;;;;;;;;;;4985769;28;20212;-85
2023/03/10 04:44:24;;;;;;;2.60;2.40;;;;;;;;;;4980091;28;20254;-88
2023/03/10 04:46:50;;;;;;;2.20;2.00;;;;;;;;;;4998551;28;20227;-86
2023/03/10 04:49:19;;;;;;;2.33;2.17;;;;;;;;;;4965289;28;20274;-84
2023/03/10 04:51:49;;;;;;;2.10;2.00;;;;;;;;;;4980217;28;20291;-87
2023/03/10 04:54:17;;;;;;;2.10;2.00;;;;;;;;;;4982875;28;20224;-83
2023/03/10 04:56:42;;;;;;;3.73;2.57;;;;;;;;;;4995738;28;20236;-86
2023/03/10 04:59:10;;;;;;;2.67;2.47;;;;;;;;;;4981787;28;20223;-86
2023/03/10 05:01:38;;;;;;;2.97;2.73;;;;;;;;;;4982916;28;20303;-84
2023/03/10 05:04:05;;;;;;;2.50;2.30;;;;;;;;;;4997511;28;20266;-84
2023/03/10 05:06:35;;;;;;;2.90;2.60;;;;;;;;;;4984937;28;21537;-85
2023/03/10 05:09:12;;;;;;;4.53;2.80;;;;;;;;;;5000545;28;20212;-85
2023/03/10 05:11:37;;;;;;;2.27;2.17;;;;;;;;;;4998247;28;20220;-85
2023/03/10 05:14:10;;;;;;;2.20;2.10;;;;;;;;;;5011072;28;20270;-85
2023/03/10 05:16:35;;;;;;;2.90;2.60;;;;;;;;;;5000471;28;20232;-84
2023/03/10 05:19:03;;;;;;;2.97;2.77;;;;;;;;;;5002975;28;20688;-85
2023/03/10 05:21:31;;;;;;;3.13;2.43;;;;;;;;;;5002466;28;20225;-87
2023/03/10 05:24:02;;;;;;;2.73;2.53;;;;;;;;;;4970002;28;20220;-86
2023/03/10 05:26:30;;;;;;;2.77;2.57;;;;;;;;;;4984929;28;20242;-86
2023/03/10 05:29:00;;;;;;;3.17;2.30;;;;;;;;;;5002635;28;20251;-84
2023/03/10 05:31:34;;;;;;;2.80;2.60;;;;;;;;;;4998740;28;20235;-84
2023/03/10 05:34:06;;;;;;;2.90;2.70;;;;;;;;;;4985795;28;20312;-84
2023/03/10 05:36:34;;;;;;;2.60;2.40;;;;;;;;;;4985190;28;20235;-85
2023/03/10 05:39:04;;;;;;;3.60;2.97;;;;;;;;;;4986576;28;20230;-83
2023/03/10 05:41:34;;;;;;;2.53;2.33;;;;;;;;;;4985724;28;20224;-85
2023/03/10 05:44:04;;;;;;;2.70;2.50;;;;;;;;;;5000123;28;20212;-82
2023/03/10 05:46:37;;;;;;;3.17;2.87;;;;;;;;;;5016472;28;20238;-84
2023/03/10 05:49:03;;;;;;;2.80;2.60;;;;;;;;;;4996379;28;20425;-87
2023/03/10 05:51:29;;;;;;;3.37;2.90;;;;;;;;;;4985034;28;20224;-85
2023/03/10 05:53:56;;;;;;;2.90;2.70;;;;;;;;;;4966616;28;20212;-89
2023/03/10 05:56:25;;;;;;;2.63;2.47;;;;;;;;;;4979568;28;20414;-86
2023/03/10 05:58:55;;;;;;;3.07;2.50;;;;;;;;;;4979487;28;20219;-84
2023/03/10 06:01:29;;;;;;;2.93;2.73;;;;;;;;;;4976972;28;20299;-85
2023/03/10 06:03:55;;;;;;;3.00;2.80;;;;;;;;;;5005611;28;20242;-86
2023/03/10 06:06:23;;;;;;;3.00;2.80;;;;;;;;;;4956175;28;20708;-83
2023/03/10 06:08:49;;;;;;;3.20;2.90;;;;;;;;;;4996045;28;20216;-86
2023/03/10 06:11:17;;;;;;;3.00;2.70;;;;;;;;;;4995960;28;20226;-85
2023/03/10 06:13:45;;;;;;;2.83;2.63;;;;;;;;;;4996077;28;20216;-84
2023/03/10 06:16:13;;;;;;;2.50;2.40;;;;;;;;;;4982781;28;20723;-85
2023/03/10 06:18:38;;;;;;;3.27;2.97;;;;;;;;;;4982957;28;20228;-83
2023/03/10 06:21:08;;;;;;;2.87;2.67;;;;;;;;;;4978189;28;20223;-84
2023/03/10 06:23:33;;;;;;;2.77;2.57;;;;;;;;;;5004249;28;20287;-82
2023/03/10 06:26:07;;;;;;;3.20;3.00;;;;;;;;;;4979597;28;20228;-83
2023/03/10 06:28:34;;;;;;;3.23;2.93;;;;;;;;;;4963810;28;20354;-84
2023/03/10 06:31:00;;;;;;;3.27;2.97;;;;;;;;;;5015780;28;20270;-86
2023/03/10 06:33:28;;;;;;;2.87;2.67;;;;;;;;;;5022338;28;20219;-87
2023/03/10 06:35:54;;;;;;;3.30;3.00;;;;;;;;;;4965572;28;20231;-87
2023/03/10 06:38:19;;;;;;;3.20;2.97;;;;;;;;;;4985568;28;20224;-85
2023/03/10 06:40:50;;;;;;;2.83;2.63;;;;;;;;;;4981494;28;20217;-87
2023/03/10 06:43:15;;;;;;;3.13;2.93;;;;;;;;;;4984920;28;20223;-87
2023/03/10 06:45:42;;;;;;;3.70;3.40;;;;;;;;;;4968016;28;20485;-87
2023/03/10 06:48:10;;;;;;;3.03;2.80;;;;;;;;;;4984766;28;20216;-85
2023/03/10 06:50:46;;;;;;;3.50;3.13;;;;;;;;;;4997012;28;20219;-85
2023/03/10 06:53:15;;;;;;;3.50;3.20;;;;;;;;;;4985673;28;20617;-83
2023/03/10 06:55:41;;;;;;;3.40;3.20;;;;;;;;;;4982235;28;20238;-86
2023/03/10 06:58:09;;;;;;;3.53;3.23;;;;;;;;;;4980304;28;20319;-85
2023/03/10 07:00:34;;;;;;;3.63;3.33;;;;;;;;;;4971771;28;20220;-85
2023/03/10 07:03:03;;;;;;;3.83;3.53;;;;;;;;;;4985401;28;20354;-88
2023/03/10 07:05:28;;;;;;;3.27;3.07;;;;;;;;;;4966642;28;20216;-84
2023/03/10 07:07:56;;;;;;;4.43;4.03;;;;;;;;;;4985015;28;20720;-84
2023/03/10 07:10:43;;;;;;;3.73;3.47;;;;;;;;;;4975193;28;20195;-86
2023/03/10 07:13:14;;;;;;;3.87;3.57;;;;;;;;;;5009794;28;20748;-87
2023/03/10 07:15:40;;;;;;;3.63;3.33;;;;;;;;;;4998158;28;20208;-87
2023/03/10 07:18:06;;;;;;;4.00;3.67;;;;;;;;;;4979375;28;20225;-85
2023/03/10 07:20:31;;;;;;;7.13;6.47;;;;;;;;;;5002501;28;20231;-84
2023/03/10 07:22:59;;;;;;;8.00;7.20;;;;;;;;;;4978470;28;20583;-86
2023/03/10 07:25:25;;;;;;;8.50;7.70;;;;;;;;;;4995515;28;20227;-87
2023/03/10 07:27:51;;;;;;;5.50;5.00;;;;;;;;;;4988490;28;20217;-85
2023/03/10 07:30:19;;;;;;;7.10;6.50;;;;;;;;;;5026925;28;20207;-84
2023/03/10 07:32:47;;;;;;;5.57;5.07;;;;;;;;;;5001642;28;20567;-83
2023/03/10 07:35:20;;;;;;;6.37;5.77;;;;;;;;;;4991731;28;20382;-83
2023/03/10 07:37:46;;;;;;;5.07;4.67;;;;;;;;;;4992759;28;20231;-82
2023/03/10 07:40:11;;;;;;;6.83;5.77;;;;;;;;;;5009886;28;20223;-82
2023/03/10 07:42:39;;;;;;;5.57;5.07;;;;;;;;;;5013309;28;20222;-82
2023/03/10 07:45:05;;;;;;;4.83;4.43;;;;;;;;;;4995317;28;21797;-82
2023/03/10 07:47:30;;;;;;;5.60;5.10;;;;;;;;;;5006213;28;20212;-83
2023/03/10 07:49:56;;;;;;;5.23;4.83;;;;;;;;;;5006895;28;20400;-84
2023/03/10 07:52:26;;;;;;;5.10;4.70;;;;;;;;;;4983458;28;20220;-83
2023/03/10 07:54:54;;;;;;;4.80;4.40;;;;;;;;;;5008444;28;20637;-83
2023/03/10 07:57:19;;;;;;;5.80;5.30;;;;;;;;;;4973049;28;20227;-81
2023/03/10 07:59:50;;;;;;;5.67;5.17;;;;;;;;;;5005476;28;20212;-81
2023/03/10 08:02:20;;;;;;;5.47;4.97;;;;;;;;;;4989057;28;20300;-84
2023/03/10 08:04:48;;;;;;;5.90;5.40;;;;;;;;;;5025705;28;20236;-80
2023/03/10 08:07:15;;;;;;;5.57;5.07;;;;;;;;;;4974643;28;20234;-80
2023/03/10 08:09:41;;;;;;;5.17;4.77;;;;;;;;;;4991987;28;20296;-80
2023/03/10 08:12:07;;;;;;;5.80;5.20;;;;;;;;;;5007811;28;20227;-82
2023/03/10 08:14:32;;;;;;;5.60;5.10;;;;;;;;;;4993054;28;20248;-82
2023/03/10 08:17:05;;;;;;;5.70;5.20;;;;;;;;;;4976494;28;20232;-83
2023/03/10 08:19:30;;;;;;;6.80;6.20;;;;;;;;;;4991777;28;20220;-82
2023/03/10 08:21:56;;;;;;;6.83;6.23;;;;;;;;;;4973960;28;20220;-80
2023/03/10 08:24:25;;;;;;;6.50;5.87;;;;;;;;;;4989214;28;20281;-80
2023/03/10 08:26:51;;;;;;;6.10;5.50;;;;;;;;;;4992242;28;20295;-80
2023/03/10 08:29:17;;;;;;;6.90;6.30;;;;;;;;;;4984858;28;20221;-80
2023/03/10 08:31:45;;;;;;;6.23;5.70;;;;;;;;;;4978394;28;20232;-78
2023/03/10 08:34:11;;;;;;;5.53;5.07;;;;;;;;;;4998662;28;20219;-77
2023/03/10 08:36:37;;;;;;;6.77;6.17;;;;;;;;;;5004610;28;20260;-79
2023/03/10 08:39:04;;;;;;;6.77;6.17;;;;;;;;;;4978005;28;20219;-78
2023/03/10 08:41:35;;;;;;;6.33;5.83;;;;;;;;;;5006624;28;20210;-80
2023/03/10 08:44:04;;;;;;;6.77;6.10;;;;;;;;;;5013989;28;20271;-79
2023/03/10 08:46:31;;;;;;;7.00;6.40;;;;;;;;;;4989145;28;20212;-79
2023/03/10 08:48:57;;;;;;;6.83;6.13;;;;;;;;;;5006372;28;20208;-78
2023/03/10 08:51:24;;;;;;;6.57;5.97;;;;;;;;;;4994032;28;20600;-79
2023/03/10 08:53:55;;;;;;;6.37;5.87;;;;;;;;;;4974271;28;20220;-79
2023/03/10 08:56:21;;;;;;;6.33;5.77;;;;;;;;;;4992964;28;20747;-79
2023/03/10 08:58:47;;;;;;;6.30;5.80;;;;;;;;;;4972745;28;20224;-78
2023/03/10 09:01:14;;;;;;;6.30;5.80;;;;;;;;;;5009056;28;20245;-78
2023/03/10 09:03:42;;;;;;;6.50;5.90;;;;;;;;;;5014355;28;20200;-78
2023/03/10 09:06:15;;;;;;;6.57;5.97;;;;;;;;;;4995561;28;20223;-77
2023/03/10 09:08:41;;;;;;;6.17;5.67;;;;;;;;;;5003111;28;20229;-78
2023/03/10 09:11:16;;;;;;;6.07;5.47;;;;;;;;;;5009189;28;20212;-78
2023/03/10 09:13:48;;;;;;;6.17;5.67;;;;;;;;;;4990712;28;20545;-77
2023/03/10 09:16:22;;;;;;;6.07;5.53;;;;;;;;;;4988409;28;20335;-77
2023/03/10 09:18:51;;;;;;;5.77;5.37;;;;;;;;;;4995480;28;20307;-79
2023/03/10 09:21:42;;;;;;;5.80;5.40;;;;;;;;;;4993378;28;20224;-79
2023/03/10 09:24:33;;;;;;;5.40;5.00;;;;;;;;;;5005339;28;20230;-80
2023/03/10 09:26:59;;;;;;;5.30;4.90;;;;;;;;;;5006112;28;20224;-77
2023/03/10 09:29:24;;;;;;;5.50;5.10;;;;;;;;;;5005069;28;20223;-77
2023/03/10 09:31:52;;;;;;;5.30;4.90;;;;;;;;;;4989026;28;20240;-78
2023/03/10 09:34:18;;;;;;;4.83;4.50;;;;;;;;;;5019271;28;20227;-78
2023/03/10 09:36:46;;;;;;;4.73;4.43;;;;;;;;;;5007041;28;20243;-78
2023/03/10 09:39:11;;;;;;;4.63;4.30;;;;;;;;;;4986933;28;20220;-80
2023/03/10 09:41:40;;;;;;;4.87;4.47;;;;;;;;;;4985080;28;20259;-80
2023/03/10 09:44:17;;;;;;;4.20;3.90;;;;;;;;;;5010727;28;20910;-78
2023/03/10 09:47:09;;;;;;;4.90;4.50;;;;;;;;;;5001369;28;20295;-80
2023/03/10 09:49:42;;;;;;;4.83;4.43;;;;;;;;;;5001306;28;20230;-78
2023/03/10 09:52:23;;;;;;;4.93;4.50;;;;;;;;;;5023120;28;20220;-79
2023/03/10 09:55:00;;;;;;;4.57;4.17;;;;;;;;;;4995964;28;20239;-79
2023/03/10 09:57:27;;;;;;;4.83;4.47;;;;;;;;;;5002394;28;20278;-81
2023/03/10 09:59:55;;;;;;;5.83;5.27;;;;;;;;;;4971643;28;20536;-79
2023/03/10 10:02:23;;;;;;;4.77;4.40;;;;;;;;;;4973986;28;20224;-81
2023/03/10 10:04:52;;;;;;;5.17;4.67;;;;;;;;;;4998922;28;20231;-82
2023/03/10 10:07:22;;;;;;;5.10;4.60;;;;;;;;;;4987436;28;20795;-81
2023/03/10 10:10:00;;;;;;;5.10;4.40;;;;;;;;;;4986675;28;20255;-80
2023/03/10 10:12:25;;;;;;;5.07;4.67;;;;;;;;;;5017901;28;20231;-81
2023/03/10 10:15:09;;;;;;;5.97;5.37;;;;;;;;;;4972424;28;20228;-80
2023/03/10 10:18:04;;;;;;;5.40;4.90;;;;;;;;;;4996708;28;20224;-80
2023/03/10 10:20:38;;;;;;;5.50;5.10;;;;;;;;;;4983047;28;20310;-80
2023/03/10 10:23:05;;;;;;;5.80;5.30;;;;;;;;;;4989514;28;20926;-79
2023/03/10 10:25:31;;;;;;;6.83;5.47;;;;;;;;;;4963300;28;20228;-80
2023/03/10 10:28:02;;;;;;;5.53;5.10;;;;;;;;;;5000794;28;20724;-78
2023/03/10 10:30:37;;;;;;;6.30;5.50;;;;;;;;;;4985390;28;20220;-78
2023/03/10 10:33:10;;;;;;;6.17;5.67;;;;;;;;;;5013308;28;20235;-77
2023/03/10 10:35:40;;;;;;;6.30;5.80;;;;;;;;;;4993760;28;20323;-80
2023/03/10 10:38:09;;;;;;;6.53;6.03;;;;;;;;;;4979808;28;20343;-80
2023/03/10 10:40:51;;;;;;;6.70;6.20;;;;;;;;;;4993077;28;20231;-78
2023/03/10 10:43:17;;;;;;;6.83;6.23;;;;;;;;;;5010376;28;20236;-81
2023/03/10 10:45:43;;;;;;;6.40;5.90;;;;;;;;;;4975777;28;20228;-80
2023/03/10 10:48:47;;;;;;;7.07;6.57;;;;;;;;;;5009553;28;20216;-78
2023/03/10 10:51:20;;;;;;;6.50;6.00;;;;;;;;;;4940735;28;20698;-79
2023/03/10 10:53:46;;;;;;;7.27;6.47;;;;;;;;;;4929600;28;20261;-79
2023/03/10 10:56:18;;;;;;;7.40;6.80;;;;;;;;;;4957518;28;20231;-80
2023/03/10 10:58:47;;;;;;;6.73;6.13;;;;;;;;;;5019230;28;20224;-78
2023/03/10 11:01:17;;;;;;;6.97;6.37;;;;;;;;;;5009231;28;20223;-77
2023/03/10 11:03:44;;;;;;;6.90;6.30;;;;;;;;;;5008236;28;20254;-81
2023/03/10 11:06:23;;;;;;;7.53;6.93;;;;;;;;;;5007524;28;20234;-78
2023/03/10 11:08:51;;;;;;;7.57;6.93;;;;;;;;;;5009501;28;20299;-81
2023/03/10 11:11:33;;;;;;;8.50;7.70;;;;;;;;;;4989932;28;20220;-78
2023/03/10 11:14:26;;;;;;;8.03;7.43;;;;;;;;;;5017643;28;20275;-81
2023/03/10 11:17:01;;;;;;;8.40;6.93;;;;;;;;;;4988027;28;20220;-79
2023/03/10 11:19:49;;;;;;;8.30;7.60;;;;;;;;;;4986875;28;20224;-80
2023/03/10 11:22:50;;;;;;;7.83;7.23;;;;;;;;;;4986474;28;20224;-79
2023/03/10 11:25:28;;;;;;;8.60;7.80;;;;;;;;;;5004104;28;20751;-79
2023/03/10 11:28:17;;;;;;;7.70;7.03;;;;;;;;;;4990601;28;20297;-81
2023/03/10 11:30:55;;;;;;;8.73;7.23;;;;;;;;;;5004673;28;20243;-80
2023/03/10 11:33:29;;;;;;;8.07;7.37;;;;;;;;;;4979986;28;20234;-80
2023/03/10 11:35:56;;;;;;;8.57;7.87;;;;;;;;;;4990842;28;20248;-79
2023/03/10 11:38:38;;;;;;;8.03;7.40;;;;;;;;;;5003359;28;20212;-81
2023/03/10 11:41:38;;;;;;;9.17;8.37;;;;;;;;;;4990966;28;20315;-80
2023/03/10 11:44:04;;;;;;;8.87;8.03;;;;;;;;;;4963618;28;20228;-79
2023/03/10 11:46:47;;;;;;;9.30;8.50;;;;;;;;;;5024403;28;20693;-79
2023/03/10 11:49:16;;;;;;;9.53;8.73;;;;;;;;;;5001294;28;20227;-81
2023/03/10 11:51:51;;;;;;;9.97;9.10;;;;;;;;;;4990731;28;20303;-79
2023/03/10 11:54:41;;;;;;;9.40;8.60;;;;;;;;;;5002733;28;20231;-79
2023/03/10 11:57:17;;;;;;;9.77;8.87;;;;;;;;;;4978588;28;20224;-81
2023/03/10 11:59:55;;;;;;;9.87;9.07;;;;;;;;;;4981249;28;20231;-80
2023/03/10 12:02:37;;;;;;;9.40;8.50;;;;;;;;;;4988481;28;20235;-81
2023/03/10 12:05:06;;;;;;;9.67;8.70;;;;;;;;;;4972633;28;20220;-80
2023/03/10 12:07:38;;;;;;;9.90;9.00;;;;;;;;;;4953139;28;20259;-80
2023/03/10 12:10:10;;;;;;;9.63;8.83;;;;;;;;;;5022870;28;20220;-79
2023/03/10 12:12:47;;;;;;;9.80;8.97;;;;;;;;;;5005390;28;20219;-80
2023/03/10 12:15:35;;;;;;;10.57;9.57;;;;;;;;;;5004139;28;20228;-80
2023/03/10 12:18:07;;;;;;;10.47;9.40;;;;;;;;;;4972535;28;20232;-79
2023/03/10 12:20:35;;;;;;;10.30;9.50;;;;;;;;;;4961060;28;20219;-80
2023/03/10 12:23:10;;;;;;;9.53;8.77;;;;;;;;;;4974738;28;20235;-79
2023/03/10 12:25:37;;;;;;;9.93;9.03;;;;;;;;;;5006893;28;20231;-79
2023/03/10 12:28:14;;;;;;;10.33;9.53;;;;;;;;;;5009335;28;20216;-81
2023/03/10 12:30:59;;;;;;;11.20;10.20;;;;;;;;;;5024028;28;20239;-82
2023/03/10 12:33:33;;;;;;;10.50;9.60;;;;;;;;;;4987380;28;20339;-81
2023/03/10 12:36:17;;;;;;;10.03;9.20;;;;;;;;;;5004751;28;20254;-80
2023/03/10 12:39:01;;;;;;;10.10;9.20;;;;;;;;;;5007439;28;20231;-80
2023/03/10 12:41:26;;;;;;;9.90;9.10;;;;;;;;;;5021514;28;20704;-78
2023/03/10 12:44:05;;;;;;;10.37;9.10;;;;;;;;;;5029642;28;20216;-78
2023/03/10 12:46:49;;;;;;;9.43;8.53;;;;;;;;;;5012077;28;20219;-78
2023/03/10 12:49:29;;;;;;;10.70;9.70;;;;;;;;;;5015341;28;20224;-77
2023/03/10 12:52:15;;;;;;;10.10;9.20;;;;;;;;;;5011362;28;20227;-78
2023/03/10 12:54:42;;;;;;;9.73;8.93;;;;;;;;;;4984750;28;20293;-76
2023/03/10 12:57:29;;;;;;;10.70;9.70;;;;;;;;;;5011604;28;20231;-77
2023/03/10 13:00:11;;;;;;;10.40;9.50;;;;;;;;;;5009145;28;20230;-79
2023/03/10 13:03:01;;;;;;;11.10;10.07;;;;;;;;;;5006066;28;20228;-78
2023/03/10 13:05:36;;;;;;;12.63;9.70;;;;;;;;;;4994254;28;20232;-78
2023/03/10 13:08:09;;;;;;;13.13;11.77;;;;;;;;;;5013514;28;20299;-80
2023/03/10 13:10:34;;;;;;;19.67;16.60;;;;;;;;;;4984775;28;20296;-82
2023/03/10 13:13:02;;;;;;;22.73;20.40;;;;;;;;;;5002005;28;20310;-83
2023/03/10 13:15:34;;;;;;;17.70;15.90;;;;;;;;;;5002670;28;20212;-82
2023/03/10 13:18:22;;;;;;;10.70;9.77;;;;;;;;;;5003408;28;20208;-82
2023/03/10 13:20:48;;;;;;;10.43;9.53;;;;;;;;;;4987199;28;20224;-84
2023/03/10 13:23:33;;;;;;;11.93;10.73;;;;;;;;;;5002770;28;20219;-84
2023/03/10 13:26:06;;;;;;;11.50;10.50;;;;;;;;;;5030558;28;20235;-84
2023/03/10 13:28:37;;;;;;;11.77;10.57;;;;;;;;;;4986408;28;20220;-82
2023/03/10 13:31:30;;;;;;;10.77;9.73;;;;;;;;;;5029598;28;20244;-84
2023/03/10 13:33:59;;;;;;;11.10;10.13;;;;;;;;;;5015541;28;20232;-87
2023/03/10 13:36:35;;;;;;;13.23;12.03;;;;;;;;;;4987957;28;20220;-88
2023/03/10 13:39:15;;;;;;;13.83;12.10;;;;;;;;;;4969933;28;20220;-90
2023/03/10 13:41:51;;;;;;;13.50;12.10;;;;;;;;;;4991762;28;20216;-87
2023/03/10 13:44:20;;;;;;;12.00;10.80;;;;;;;;;;4983506;28;20211;-84
2023/03/10 13:46:53;;;;;;;12.50;11.30;;;;;;;;;;5012389;28;20815;-89
2023/03/10 13:49:20;;;;;;;12.47;11.37;;;;;;;;;;5016667;28;20220;-89
2023/03/10 13:52:01;;;;;;;11.10;10.10;;;;;;;;;;4997965;28;20603;-86
2023/03/10 13:54:30;;;;;;;12.73;11.60;;;;;;;;;;4979922;28;20299;-84
2023/03/10 13:57:00;;;;;;;13.90;12.50;;;;;;;;;;4998566;28;20239;-86
2023/03/10 13:59:28;;;;;;;11.83;10.83;;;;;;;;;;4999363;28;20343;-86
2023/03/10 14:01:59;;;;;;;12.30;11.27;;;;;;;;;;5003248;28;20226;-86
2023/03/10 14:04:39;;;;;;;12.30;11.13;;;;;;;;;;5012101;28;20246;-89
2023/03/10 14:07:19;;;;;;;17.88;16.27;;;;;;;;;;5017783;28;20448;-89
2023/03/10 14:10:03;;;;;;;14.90;13.50;;;;;;;;;;5017236;28;20259;-88
2023/03/10 14:12:51;;;;;;;11.77;10.67;;;;;;;;;;5010965;28;20766;-88
2023/03/10 14:15:19;;;;;;;12.97;11.27;;;;;;;;;;4985527;28;20226;-88
2023/03/10 14:17:48;;;;;;;12.40;11.30;;;;;;;;;;5000660;28;20279;-85
2023/03/10 14:20:30;;;;;;;12.07;10.97;;;;;;;;;;4995867;28;20219;-90
2023/03/10 14:22:58;;;;;;;12.17;10.97;;;;;;;;;;4970072;28;20212;-85
2023/03/10 14:25:27;;;;;;;11.97;10.73;;;;;;;;;;4983312;28;20507;-86
2023/03/10 14:28:05;;;;;;;11.70;10.67;;;;;;;;;;5004731;28;20200;-83
2023/03/10 14:30:33;;;;;;;12.20;10.83;;;;;;;;;;4979457;28;20216;-86
2023/03/10 14:33:02;;;;;;;12.03;10.93;;;;;;;;;;5003621;28;20216;-87
2023/03/10 14:35:28;;;;;;;12.43;11.33;;;;;;;;;;4984808;28;20238;-87
2023/03/10 14:37:55;;;;;;;11.10;10.10;;;;;;;;;;4985202;28;20215;-86
2023/03/10 14:40:24;;;;;;;11.97;10.87;;;;;;;;;;4982352;28;20648;-85
2023/03/10 14:42:50;;;;;;;11.73;10.73;;;;;;;;;;4984462;28;20233;-87
2023/03/10 14:45:33;;;;;;;14.10;11.97;;;;;;;;;;5011735;28;20232;-84
2023/03/10 14:48:01;;;;;;;12.80;11.70;;;;;;;;;;5015975;28;20224;-87
2023/03/10 14:50:27;;;;;;;12.87;11.67;;;;;;;;;;4993563;28;20235;-87
2023/03/10 14:52:52;;;;;;;12.40;10.77;;;;;;;;;;4987495;28;20217;-88
2023/03/10 14:55:18;;;;;;;12.40;11.20;;;;;;;;;;4987752;28;20301;-84
2023/03/10 14:57:44;;;;;;;11.77;10.13;;;;;;;;;;4986695;28;20270;-87
2023/03/10 15:00:24;;;;;;;12.00;11.00;;;;;;;;;;4988403;28;20231;-88